createdAt,value
2018-08-14T00:00:23.525Z,1004.81
2018-08-14T00:01:23.546Z,1004.75
2018-08-14T00:02:23.587Z,1004.76
2018-08-14T00:03:23.618Z,1004.77
2018-08-14T00:04:23.639Z,1004.76
2018-08-14T00:05:23.666Z,1004.76
2018-08-14T00:06:23.696Z,1004.76
2018-08-14T00:07:23.727Z,1004.78
2018-08-14T00:08:23.771Z,1004.79
2018-08-14T00:09:23.792Z,1004.80
2018-08-14T00:10:23.815Z,1004.78
2018-08-14T00:11:23.848Z,1004.79
2018-08-14T00:12:23.873Z,1004.78
2018-08-14T00:13:23.910Z,1004.77
2018-08-14T00:14:23.932Z,1004.76
2018-08-14T00:15:23.965Z,1004.75
2018-08-14T00:16:23.995Z,1004.77
2018-08-14T00:17:24.042Z,1004.77
2018-08-14T00:18:24.060Z,1004.77
2018-08-14T00:19:24.081Z,1004.81
2018-08-14T00:20:24.112Z,1004.79
2018-08-14T00:21:24.136Z,1004.82
2018-08-14T00:22:24.172Z,1004.80
2018-08-14T00:23:24.205Z,1004.80
2018-08-14T00:24:24.231Z,1004.82
2018-08-14T00:25:24.261Z,1004.82
2018-08-14T00:26:24.289Z,1004.83
2018-08-14T00:27:24.311Z,1004.81
2018-08-14T00:28:24.348Z,1004.80
2018-08-14T00:29:24.373Z,1004.80
2018-08-14T00:30:24.404Z,1004.83
2018-08-14T00:31:24.436Z,1004.86
2018-08-14T00:32:24.471Z,1004.87
2018-08-14T00:33:24.494Z,1004.84
2018-08-14T00:34:24.518Z,1004.88
2018-08-14T00:35:24.548Z,1004.89
2018-08-14T00:36:24.580Z,1004.85
2018-08-14T00:37:24.707Z,1004.90
2018-08-14T00:38:24.638Z,1004.89
2018-08-14T00:39:24.676Z,1004.90
2018-08-14T00:40:24.706Z,1004.92
2018-08-14T00:41:24.726Z,1004.94
2018-08-14T00:42:24.759Z,1004.98
2018-08-14T00:43:24.787Z,1005.00
2018-08-14T00:44:24.812Z,1004.96
2018-08-14T00:45:24.845Z,1005.06
2018-08-14T00:46:24.894Z,1004.99
2018-08-14T00:47:24.904Z,1005.00
2018-08-14T00:48:24.944Z,1005.03
2018-08-14T00:49:24.978Z,1005.02
2018-08-14T00:50:24.993Z,1005.04
2018-08-14T00:51:25.021Z,1005.00
2018-08-14T00:52:25.052Z,1005.02
2018-08-14T00:53:25.089Z,1005.04
2018-08-14T00:54:25.121Z,1004.98
2018-08-14T00:55:26.122Z,1005.02
2018-08-14T00:56:25.170Z,1005.03
2018-08-14T00:57:25.202Z,1005.00
2018-08-14T00:58:25.226Z,1005.01
2018-08-14T00:59:25.258Z,1005.01
2018-08-14T01:00:25.284Z,1004.98
2018-08-14T01:01:25.320Z,1005.00
2018-08-14T01:02:25.345Z,1005.03
2018-08-14T01:03:25.382Z,1005.01
2018-08-14T01:04:25.423Z,1005.04
2018-08-14T01:05:25.432Z,1005.00
2018-08-14T01:06:25.463Z,1005.03
2018-08-14T01:07:25.493Z,1005.02
2018-08-14T01:08:25.529Z,1005.00
2018-08-14T01:09:25.557Z,1005.00
2018-08-14T01:10:25.581Z,1005.03
2018-08-14T01:11:25.631Z,1005.03
2018-08-14T01:12:25.650Z,1005.05
2018-08-14T01:13:25.668Z,1005.03
2018-08-14T01:14:25.699Z,1005.01
2018-08-14T01:15:25.729Z,1005.01
2018-08-14T01:16:25.766Z,1005.00
2018-08-14T01:17:25.782Z,1005.01
2018-08-14T01:18:25.814Z,1005.02
2018-08-14T01:19:25.845Z,1005.04
2018-08-14T01:20:25.879Z,1005.04
2018-08-14T01:21:25.896Z,1005.04
2018-08-14T01:22:25.927Z,1005.06
2018-08-14T01:23:25.962Z,1005.02
2018-08-14T01:24:25.985Z,1005.01
2018-08-14T01:25:26.025Z,1005.06
2018-08-14T01:26:26.046Z,1005.03
2018-08-14T01:27:26.075Z,1005.05
2018-08-14T01:28:26.108Z,1005.02
2018-08-14T01:29:26.135Z,1005.09
2018-08-14T01:30:26.171Z,1005.12
2018-08-14T01:31:26.201Z,1005.14
2018-08-14T01:32:26.222Z,1005.11
2018-08-14T01:33:26.254Z,1005.06
2018-08-14T01:34:26.277Z,1005.07
2018-08-14T01:35:26.311Z,1005.08
2018-08-14T01:36:26.339Z,1005.05
2018-08-14T01:37:26.384Z,1005.12
2018-08-14T01:38:26.407Z,1005.09
2018-08-14T01:39:27.129Z,1005.09
2018-08-14T01:40:26.453Z,1005.11
2018-08-14T01:41:26.488Z,1005.10
2018-08-14T01:42:26.516Z,1005.11
2018-08-14T01:43:26.551Z,1005.05
2018-08-14T01:44:26.576Z,1005.09
2018-08-14T01:45:26.608Z,1005.06
2018-08-14T01:46:26.645Z,1005.06
2018-08-14T01:47:26.675Z,1005.08
2018-08-14T01:48:26.699Z,1005.11
2018-08-14T01:49:26.718Z,1005.11
2018-08-14T01:50:26.756Z,1005.15
2018-08-14T01:51:26.776Z,1005.14
2018-08-14T01:52:26.805Z,1005.14
2018-08-14T01:53:26.839Z,1005.21
2018-08-14T01:54:26.867Z,1005.19
2018-08-14T01:55:26.890Z,1005.15
2018-08-14T01:56:26.921Z,1005.22
2018-08-14T01:57:26.986Z,1005.21
2018-08-14T01:58:26.984Z,1005.25
2018-08-14T01:59:27.014Z,1005.26
2018-08-14T02:00:27.050Z,1005.23
2018-08-14T02:01:27.073Z,1005.24
2018-08-14T02:02:27.095Z,1005.20
2018-08-14T02:03:27.125Z,1005.20
2018-08-14T02:04:27.161Z,1005.18
2018-08-14T02:05:27.184Z,1005.19
2018-08-14T02:06:27.214Z,1005.21
2018-08-14T02:07:27.246Z,1005.22
2018-08-14T02:08:27.281Z,1005.21
2018-08-14T02:09:27.301Z,1005.23
2018-08-14T02:10:27.329Z,1005.23
2018-08-14T02:11:27.356Z,1005.24
2018-08-14T02:12:27.390Z,1005.24
2018-08-14T02:13:27.422Z,1005.26
2018-08-14T02:14:27.452Z,1005.28
2018-08-14T02:15:27.477Z,1005.30
2018-08-14T02:16:27.529Z,1005.31
2018-08-14T02:17:27.535Z,1005.32
2018-08-14T02:18:27.564Z,1005.30
2018-08-14T02:19:27.593Z,1005.31
2018-08-14T02:20:27.619Z,1005.30
2018-08-14T02:21:27.662Z,1005.32
2018-08-14T02:22:27.676Z,1005.30
2018-08-14T02:23:27.707Z,1005.29
2018-08-14T02:24:27.737Z,1005.29
2018-08-14T02:25:27.767Z,1005.32
2018-08-14T02:26:27.805Z,1005.31
2018-08-14T02:27:27.834Z,1005.35
2018-08-14T02:28:27.863Z,1005.28
2018-08-14T02:29:27.877Z,1005.31
2018-08-14T02:30:27.925Z,1005.34
2018-08-14T02:31:27.939Z,1005.36
2018-08-14T02:32:27.978Z,1005.39
2018-08-14T02:33:28.003Z,1005.38
2018-08-14T02:34:28.023Z,1005.37
2018-08-14T02:35:28.064Z,1005.34
2018-08-14T02:36:28.089Z,1005.38
2018-08-14T02:37:28.124Z,1005.37
2018-08-14T02:38:28.142Z,1005.42
2018-08-14T02:39:28.269Z,1005.39
2018-08-14T02:40:28.203Z,1005.40
2018-08-14T02:41:28.263Z,1005.39
2018-08-14T02:42:28.262Z,1005.35
2018-08-14T02:43:28.287Z,1005.41
2018-08-14T02:44:28.316Z,1005.41
2018-08-14T02:45:28.348Z,1005.45
2018-08-14T02:46:28.375Z,1005.47
2018-08-14T02:47:28.403Z,1005.48
2018-08-14T02:48:28.434Z,1005.49
2018-08-14T02:49:28.461Z,1005.51
2018-08-14T02:50:28.543Z,1005.49
2018-08-14T02:51:28.518Z,1005.55
2018-08-14T02:52:28.548Z,1005.52
2018-08-14T02:53:28.582Z,1005.55
2018-08-14T02:54:28.605Z,1005.53
2018-08-14T02:55:28.637Z,1005.52
2018-08-14T02:56:28.674Z,1005.52
2018-08-14T02:57:28.692Z,1005.52
2018-08-14T02:58:28.719Z,1005.56
2018-08-14T02:59:28.748Z,1005.52
2018-08-14T03:00:28.781Z,1005.55
2018-08-14T03:01:28.817Z,1005.57
2018-08-14T03:02:28.834Z,1005.58
2018-08-14T03:03:28.869Z,1005.58
2018-08-14T03:04:28.893Z,1005.53
2018-08-14T03:05:28.922Z,1005.56
2018-08-14T03:06:28.955Z,1005.57
2018-08-14T03:07:28.980Z,1005.60
2018-08-14T03:08:29.012Z,1005.60
2018-08-14T03:09:29.035Z,1005.60
2018-08-14T03:10:29.062Z,1005.59
2018-08-14T03:11:29.095Z,1005.59
2018-08-14T03:12:29.124Z,1005.57
2018-08-14T03:13:29.152Z,1005.61
2018-08-14T03:14:29.182Z,1005.53
2018-08-14T03:15:29.210Z,1005.57
2018-08-14T03:16:29.239Z,1005.58
2018-08-14T03:17:29.268Z,1005.59
2018-08-14T03:18:29.296Z,1005.57
2018-08-14T03:19:29.336Z,1005.59
2018-08-14T03:20:29.365Z,1005.59
2018-08-14T03:21:29.385Z,1005.62
2018-08-14T03:22:29.423Z,1005.66
2018-08-14T03:23:29.444Z,1005.64
2018-08-14T03:24:29.471Z,1005.64
2018-08-14T03:25:29.499Z,1005.66
2018-08-14T03:26:29.574Z,1005.64
2018-08-14T03:27:29.558Z,1005.68
2018-08-14T03:28:29.605Z,1005.63
2018-08-14T03:29:29.612Z,1005.67
2018-08-14T03:30:29.644Z,1005.67
2018-08-14T03:31:29.676Z,1005.68
2018-08-14T03:32:29.707Z,1005.66
2018-08-14T03:33:29.737Z,1005.69
2018-08-14T03:34:29.757Z,1005.65
2018-08-14T03:35:29.786Z,1005.68
2018-08-14T03:36:29.828Z,1005.65
2018-08-14T03:37:29.842Z,1005.62
2018-08-14T03:38:29.874Z,1005.70
2018-08-14T03:39:29.908Z,1005.68
2018-08-14T03:40:29.935Z,1005.71
2018-08-14T03:41:29.978Z,1005.71
2018-08-14T03:42:29.985Z,1005.70
2018-08-14T03:43:30.063Z,1005.74
2018-08-14T03:44:30.045Z,1005.74
2018-08-14T03:45:30.082Z,1005.78
2018-08-14T03:46:30.111Z,1005.85
2018-08-14T03:47:30.135Z,1005.84
2018-08-14T03:48:30.169Z,1005.88
2018-08-14T03:49:30.186Z,1005.87
2018-08-14T03:50:30.303Z,1005.88
2018-08-14T03:51:30.247Z,1005.84
2018-08-14T03:52:30.288Z,1005.86
2018-08-14T03:53:30.312Z,1005.89
2018-08-14T03:54:30.333Z,1005.92
2018-08-14T03:55:30.375Z,1005.91
2018-08-14T03:56:30.390Z,1005.96
2018-08-14T03:57:30.417Z,1005.92
2018-08-14T03:58:30.450Z,1005.94
2018-08-14T03:59:30.478Z,1005.93
2018-08-14T04:00:30.508Z,1005.93
2018-08-14T04:01:30.541Z,1005.94
2018-08-14T04:02:30.564Z,1005.95
2018-08-14T04:03:30.598Z,1005.91
2018-08-14T04:04:30.622Z,1005.96
2018-08-14T04:05:30.650Z,1005.95
2018-08-14T04:06:30.680Z,1005.92
2018-08-14T04:07:30.708Z,1005.93
2018-08-14T04:08:30.734Z,1005.95
2018-08-14T04:09:30.766Z,1005.97
2018-08-14T04:10:30.787Z,1005.92
2018-08-14T04:11:30.817Z,1005.91
2018-08-14T04:12:30.850Z,1005.89
2018-08-14T04:13:30.877Z,1005.91
2018-08-14T04:14:30.907Z,1005.91
2018-08-14T04:15:30.933Z,1005.96
2018-08-14T04:16:30.964Z,1005.94
2018-08-14T04:17:31.000Z,1006.01
2018-08-14T04:18:31.022Z,1006.00
2018-08-14T04:19:31.057Z,1006.00
2018-08-14T04:20:31.080Z,1005.99
2018-08-14T04:21:31.106Z,1005.98
2018-08-14T04:22:31.138Z,1005.99
2018-08-14T04:23:31.165Z,1006.01
2018-08-14T04:24:31.191Z,1006.07
2018-08-14T04:25:31.225Z,1006.11
2018-08-14T04:26:31.268Z,1006.10
2018-08-14T04:27:31.277Z,1006.14
2018-08-14T04:28:31.305Z,1006.13
2018-08-14T04:29:31.333Z,1006.14
2018-08-14T04:30:31.372Z,1006.15
2018-08-14T04:31:31.396Z,1006.11
2018-08-14T04:32:31.428Z,1006.15
2018-08-14T04:33:31.449Z,1006.16
2018-08-14T04:34:31.487Z,1006.17
2018-08-14T04:35:31.511Z,1006.19
2018-08-14T04:36:31.542Z,1006.20
2018-08-14T04:37:31.564Z,1006.17
2018-08-14T04:38:31.598Z,1006.19
2018-08-14T04:39:31.623Z,1006.23
2018-08-14T04:40:31.651Z,1006.22
2018-08-14T04:41:31.703Z,1006.26
2018-08-14T04:42:31.709Z,1006.29
2018-08-14T04:43:31.745Z,1006.28
2018-08-14T04:44:31.763Z,1006.28
2018-08-14T04:45:31.796Z,1006.30
2018-08-14T04:46:31.825Z,1006.27
2018-08-14T04:47:31.855Z,1006.29
2018-08-14T04:48:31.885Z,1006.27
2018-08-14T04:49:31.907Z,1006.26
2018-08-14T04:50:31.935Z,1006.28
2018-08-14T04:51:31.969Z,1006.26
2018-08-14T04:52:32.085Z,1006.28
2018-08-14T04:53:32.025Z,1006.27
2018-08-14T04:54:32.062Z,1006.27
2018-08-14T04:55:32.092Z,1006.23
2018-08-14T04:56:32.113Z,1006.28
2018-08-14T04:57:32.135Z,1006.28
2018-08-14T04:58:32.174Z,1006.31
2018-08-14T04:59:32.202Z,1006.30
2018-08-14T05:00:32.229Z,1006.30
2018-08-14T05:01:32.250Z,1006.30
2018-08-14T05:02:32.288Z,1006.32
2018-08-14T05:03:32.328Z,1006.35
2018-08-14T05:04:32.340Z,1006.35
2018-08-14T05:05:32.370Z,1006.35
2018-08-14T05:06:32.395Z,1006.39
2018-08-14T05:07:32.429Z,1006.38
2018-08-14T05:08:32.455Z,1006.44
2018-08-14T05:09:32.484Z,1006.45
2018-08-14T05:10:32.524Z,1006.47
2018-08-14T05:11:32.541Z,1006.49
2018-08-14T05:12:32.580Z,1006.53
2018-08-14T05:13:32.603Z,1006.52
2018-08-14T05:14:32.644Z,1006.49
2018-08-14T05:15:32.654Z,1006.51
2018-08-14T05:16:32.683Z,1006.53
2018-08-14T05:17:32.707Z,1006.51
2018-08-14T05:18:32.744Z,1006.51
2018-08-14T05:19:32.773Z,1006.52
2018-08-14T05:20:32.798Z,1006.52
2018-08-14T05:21:32.835Z,1006.55
2018-08-14T05:22:32.855Z,1006.52
2018-08-14T05:23:32.885Z,1006.57
2018-08-14T05:24:32.916Z,1006.56
2018-08-14T05:25:32.944Z,1006.57
2018-08-14T05:26:32.972Z,1006.50
2018-08-14T05:27:33.003Z,1006.56
2018-08-14T05:28:33.027Z,1006.54
2018-08-14T05:29:33.056Z,1006.57
2018-08-14T05:30:33.088Z,1006.58
2018-08-14T05:31:33.111Z,1006.56
2018-08-14T05:32:33.153Z,1006.58
2018-08-14T05:33:33.294Z,1006.57
2018-08-14T05:34:33.232Z,1006.61
2018-08-14T05:35:33.231Z,1006.57
2018-08-14T05:36:33.269Z,1006.57
2018-08-14T05:37:33.286Z,1006.59
2018-08-14T05:38:33.325Z,1006.54
2018-08-14T05:39:33.341Z,1006.56
2018-08-14T05:40:33.378Z,1006.60
2018-08-14T05:41:33.399Z,1006.58
2018-08-14T05:42:33.430Z,1006.62
2018-08-14T05:43:33.524Z,1006.60
2018-08-14T05:44:33.494Z,1006.61
2018-08-14T05:45:33.513Z,1006.62
2018-08-14T05:46:33.542Z,1006.61
2018-08-14T05:47:33.580Z,1006.64
2018-08-14T05:48:33.599Z,1006.66
2018-08-14T05:49:33.631Z,1006.70
2018-08-14T05:50:33.668Z,1006.69
2018-08-14T05:51:33.693Z,1006.74
2018-08-14T05:52:33.711Z,1006.71
2018-08-14T05:53:33.737Z,1006.70
2018-08-14T05:54:33.782Z,1006.75
2018-08-14T05:55:33.807Z,1006.75
2018-08-14T05:56:33.834Z,1006.76
2018-08-14T05:57:33.856Z,1006.74
2018-08-14T05:58:33.891Z,1006.75
2018-08-14T05:59:33.923Z,1006.72
2018-08-14T06:00:33.946Z,1006.73
2018-08-14T06:01:33.977Z,1006.75
2018-08-14T06:02:34.008Z,1006.75
2018-08-14T06:03:34.049Z,1006.75
2018-08-14T06:04:34.069Z,1006.76
2018-08-14T06:05:34.086Z,1006.73
2018-08-14T06:06:34.110Z,1006.74
2018-08-14T06:07:34.147Z,1006.76
2018-08-14T06:08:34.170Z,1006.77
2018-08-14T06:09:34.210Z,1006.70
2018-08-14T06:10:34.227Z,1006.74
2018-08-14T06:11:34.257Z,1006.78
2018-08-14T06:12:34.285Z,1006.77
2018-08-14T06:13:34.312Z,1006.83
2018-08-14T06:14:34.380Z,1006.83
2018-08-14T06:15:34.381Z,1006.78
2018-08-14T06:16:34.402Z,1006.78
2018-08-14T06:17:34.429Z,1006.75
2018-08-14T06:18:34.454Z,1006.78
2018-08-14T06:19:34.487Z,1006.81
2018-08-14T06:20:34.520Z,1006.85
2018-08-14T06:21:34.552Z,1006.83
2018-08-14T06:22:34.601Z,1006.80
2018-08-14T06:23:34.613Z,1006.82
2018-08-14T06:24:34.632Z,1006.81
2018-08-14T06:25:34.668Z,1006.81
2018-08-14T06:26:34.687Z,1006.83
2018-08-14T06:27:34.721Z,1006.85
2018-08-14T06:28:34.775Z,1006.87
2018-08-14T06:29:34.782Z,1006.87
2018-08-14T06:30:34.808Z,1006.90
2018-08-14T06:31:34.833Z,1006.88
2018-08-14T06:32:34.858Z,1006.89
2018-08-14T06:33:34.913Z,1006.88
2018-08-14T06:34:35.001Z,1006.89
2018-08-14T06:35:34.949Z,1006.83
2018-08-14T06:36:35.000Z,1006.88
2018-08-14T06:37:35.005Z,1006.86
2018-08-14T06:38:35.035Z,1006.90
2018-08-14T06:39:35.062Z,1006.89
2018-08-14T06:40:35.097Z,1006.89
2018-08-14T06:41:35.115Z,1006.89
2018-08-14T06:42:35.157Z,1006.90
2018-08-14T06:43:35.209Z,1006.91
2018-08-14T06:44:35.210Z,1006.94
2018-08-14T06:45:35.243Z,1006.88
2018-08-14T06:46:35.263Z,1006.93
2018-08-14T06:47:35.288Z,1006.93
2018-08-14T06:48:35.324Z,1006.92
2018-08-14T06:49:35.344Z,1006.90
2018-08-14T06:50:35.371Z,1006.93
2018-08-14T06:51:35.408Z,1006.92
2018-08-14T06:52:35.426Z,1006.95
2018-08-14T06:53:35.461Z,1006.97
2018-08-14T06:54:35.528Z,1006.92
2018-08-14T06:55:35.524Z,1006.99
2018-08-14T06:56:35.549Z,1006.98
2018-08-14T06:57:35.576Z,1006.94
2018-08-14T06:58:35.611Z,1006.93
2018-08-14T06:59:35.630Z,1006.99
2018-08-14T07:00:35.662Z,1007.01
2018-08-14T07:01:35.685Z,1007.00
2018-08-14T07:02:35.714Z,1007.01
2018-08-14T07:03:35.748Z,1007.01
2018-08-14T07:04:35.780Z,1007.05
2018-08-14T07:05:35.818Z,1006.99
2018-08-14T07:06:35.832Z,1007.05
2018-08-14T07:07:35.857Z,1007.01
2018-08-14T07:08:35.892Z,1007.05
2018-08-14T07:09:35.919Z,1007.04
2018-08-14T07:10:35.949Z,1007.03
2018-08-14T07:11:35.979Z,1007.00
2018-08-14T07:12:36.009Z,1007.02
2018-08-14T07:13:36.038Z,1007.05
2018-08-14T07:14:36.058Z,1007.02
2018-08-14T07:15:36.093Z,1007.01
2018-08-14T07:16:36.238Z,1007.05
2018-08-14T07:17:36.194Z,1007.02
2018-08-14T07:18:36.178Z,1007.06
2018-08-14T07:19:36.203Z,1007.05
2018-08-14T07:20:36.234Z,1007.10
2018-08-14T07:21:36.256Z,1007.09
2018-08-14T07:22:36.294Z,1007.11
2018-08-14T07:23:36.331Z,1007.11
2018-08-14T07:24:36.351Z,1007.14
2018-08-14T07:25:36.387Z,1007.13
2018-08-14T07:26:36.414Z,1007.10
2018-08-14T07:27:36.441Z,1007.13
2018-08-14T07:28:36.464Z,1007.12
2018-08-14T07:29:36.492Z,1007.12
2018-08-14T07:30:36.520Z,1007.13
2018-08-14T07:31:36.549Z,1007.13
2018-08-14T07:32:36.579Z,1007.13
2018-08-14T07:33:36.608Z,1007.16
2018-08-14T07:34:36.648Z,1007.17
2018-08-14T07:35:36.668Z,1007.17
2018-08-14T07:36:36.745Z,1007.14
2018-08-14T07:37:36.721Z,1007.18
2018-08-14T07:38:36.803Z,1007.16
2018-08-14T07:39:36.780Z,1007.18
2018-08-14T07:40:36.808Z,1007.18
2018-08-14T07:41:36.839Z,1007.19
2018-08-14T07:42:36.871Z,1007.18
2018-08-14T07:43:36.897Z,1007.17
2018-08-14T07:44:36.933Z,1007.18
2018-08-14T07:45:36.953Z,1007.20
2018-08-14T07:46:36.984Z,1007.23
2018-08-14T07:47:37.015Z,1007.21
2018-08-14T07:48:37.045Z,1007.26
2018-08-14T07:49:37.072Z,1007.24
2018-08-14T07:50:37.099Z,1007.25
2018-08-14T07:51:37.124Z,1007.27
2018-08-14T07:52:37.159Z,1007.26
2018-08-14T07:53:37.182Z,1007.28
2018-08-14T07:54:37.222Z,1007.25
2018-08-14T07:55:37.249Z,1007.29
2018-08-14T07:56:37.282Z,1007.26
2018-08-14T07:57:37.301Z,1007.24
2018-08-14T07:58:37.331Z,1007.33
2018-08-14T07:59:37.365Z,1007.32
2018-08-14T08:00:37.386Z,1007.38
2018-08-14T08:01:37.416Z,1007.42
2018-08-14T08:02:37.444Z,1007.37
2018-08-14T08:03:37.476Z,1007.38
2018-08-14T08:04:37.499Z,1007.37
2018-08-14T08:05:37.529Z,1007.37
2018-08-14T08:06:37.555Z,1007.42
2018-08-14T08:07:37.631Z,1007.39
2018-08-14T08:08:37.618Z,1007.36
2018-08-14T08:09:37.644Z,1007.36
2018-08-14T08:10:37.673Z,1007.41
2018-08-14T08:11:37.706Z,1007.37
2018-08-14T08:12:37.729Z,1007.37
2018-08-14T08:13:37.764Z,1007.41
2018-08-14T08:14:37.791Z,1007.40
2018-08-14T08:15:37.828Z,1007.44
2018-08-14T08:16:37.852Z,1007.47
2018-08-14T08:17:37.891Z,1007.44
2018-08-14T08:18:37.907Z,1007.47
2018-08-14T08:19:37.938Z,1007.45
2018-08-14T08:20:37.970Z,1007.39
2018-08-14T08:21:37.996Z,1007.46
2018-08-14T08:22:38.036Z,1007.45
2018-08-14T08:23:38.046Z,1007.45
2018-08-14T08:24:38.135Z,1007.48
2018-08-14T08:25:38.123Z,1007.48
2018-08-14T08:26:38.137Z,1007.50
2018-08-14T08:27:38.318Z,1007.51
2018-08-14T08:28:38.212Z,1007.51
2018-08-14T08:29:38.223Z,1007.49
2018-08-14T08:30:38.250Z,1007.51
2018-08-14T08:31:38.291Z,1007.45
2018-08-14T08:32:38.309Z,1007.52
2018-08-14T08:33:38.378Z,1007.50
2018-08-14T08:34:38.430Z,1007.48
2018-08-14T08:35:38.397Z,1007.50
2018-08-14T08:36:38.440Z,1007.50
2018-08-14T08:37:38.455Z,1007.51
2018-08-14T08:38:38.487Z,1007.53
2018-08-14T08:39:38.526Z,1007.52
2018-08-14T08:40:38.540Z,1007.52
2018-08-14T08:41:38.602Z,1007.53
2018-08-14T08:42:38.604Z,1007.51
2018-08-14T08:43:38.627Z,1007.53
2018-08-14T08:44:38.659Z,1007.54
2018-08-14T08:45:38.703Z,1007.49
2018-08-14T08:46:38.716Z,1007.54
2018-08-14T08:47:38.839Z,1007.50
2018-08-14T08:48:38.783Z,1007.51
2018-08-14T08:49:38.811Z,1007.49
2018-08-14T08:50:38.838Z,1007.56
2018-08-14T08:51:38.862Z,1007.51
2018-08-14T08:52:38.891Z,1007.51
2018-08-14T08:53:38.930Z,1007.53
2018-08-14T08:54:38.953Z,1007.52
2018-08-14T08:55:38.976Z,1007.57
2018-08-14T08:56:39.006Z,1007.52
2018-08-14T08:57:39.045Z,1007.57
2018-08-14T08:58:39.065Z,1007.53
2018-08-14T08:59:39.095Z,1007.53
2018-08-14T09:00:39.132Z,1007.53
2018-08-14T09:01:39.151Z,1007.50
2018-08-14T09:02:39.207Z,1007.48
2018-08-14T09:03:39.252Z,1007.45
2018-08-14T09:04:39.244Z,1007.45
2018-08-14T09:05:39.283Z,1007.43
2018-08-14T09:06:39.293Z,1007.40
2018-08-14T09:07:39.327Z,1007.41
2018-08-14T09:08:39.353Z,1007.45
2018-08-14T09:09:39.386Z,1007.44
2018-08-14T09:10:39.421Z,1007.41
2018-08-14T09:11:39.443Z,1007.40
2018-08-14T09:12:39.469Z,1007.44
2018-08-14T09:13:39.508Z,1007.43
2018-08-14T09:14:39.528Z,1007.47
2018-08-14T09:15:39.585Z,1007.45
2018-08-14T09:16:39.600Z,1007.50
2018-08-14T09:17:39.620Z,1007.47
2018-08-14T09:18:39.647Z,1007.50
2018-08-14T09:19:39.673Z,1007.51
2018-08-14T09:20:39.705Z,1007.50
2018-08-14T09:21:39.735Z,1007.53
2018-08-14T09:22:39.760Z,1007.54
2018-08-14T09:23:39.795Z,1007.55
2018-08-14T09:24:39.822Z,1007.56
2018-08-14T09:25:39.848Z,1007.54
2018-08-14T09:26:39.881Z,1007.54
2018-08-14T09:27:39.923Z,1007.54
2018-08-14T09:28:39.936Z,1007.55
2018-08-14T09:29:39.970Z,1007.59
2018-08-14T09:30:39.997Z,1007.59
2018-08-14T09:31:40.025Z,1007.57
2018-08-14T09:32:40.057Z,1007.61
2018-08-14T09:33:40.084Z,1007.59
2018-08-14T09:34:40.112Z,1007.60
2018-08-14T09:35:40.157Z,1007.53
2018-08-14T09:36:40.175Z,1007.55
2018-08-14T09:37:40.203Z,1007.58
2018-08-14T09:38:40.235Z,1007.57
2018-08-14T09:39:40.260Z,1007.58
2018-08-14T09:40:40.292Z,1007.58
2018-08-14T09:41:40.327Z,1007.56
2018-08-14T09:42:40.361Z,1007.58
2018-08-14T09:43:40.385Z,1007.56
2018-08-14T09:44:40.412Z,1007.60
2018-08-14T09:45:40.434Z,1007.63
2018-08-14T09:46:40.469Z,1007.65
2018-08-14T09:47:40.508Z,1007.61
2018-08-14T09:48:40.527Z,1007.56
2018-08-14T09:49:40.557Z,1007.58
2018-08-14T09:50:40.578Z,1007.61
2018-08-14T09:51:40.610Z,1007.63
2018-08-14T09:52:40.645Z,1007.59
2018-08-14T09:53:40.711Z,1007.56
2018-08-14T09:54:40.696Z,1007.62
2018-08-14T09:55:40.731Z,1007.66
2018-08-14T09:56:40.761Z,1007.57
2018-08-14T09:57:40.784Z,1007.62
2018-08-14T09:58:40.822Z,1007.61
2018-08-14T09:59:40.846Z,1007.65
2018-08-14T10:00:40.924Z,1007.66
2018-08-14T10:01:40.984Z,1007.59
2018-08-14T10:02:40.937Z,1007.62
2018-08-14T10:03:40.966Z,1007.64
2018-08-14T10:04:41.035Z,1007.64
2018-08-14T10:05:41.029Z,1007.63
2018-08-14T10:06:41.051Z,1007.61
2018-08-14T10:07:41.086Z,1007.60
2018-08-14T10:08:41.112Z,1007.60
2018-08-14T10:09:41.149Z,1007.54
2018-08-14T10:10:41.168Z,1007.58
2018-08-14T10:11:41.194Z,1007.56
2018-08-14T10:12:41.241Z,1007.54
2018-08-14T10:13:41.253Z,1007.54
2018-08-14T10:14:41.313Z,1007.57
2018-08-14T10:15:41.326Z,1007.56
2018-08-14T10:16:41.344Z,1007.59
2018-08-14T10:17:41.544Z,1007.57
2018-08-14T10:18:41.402Z,1007.54
2018-08-14T10:19:41.469Z,1007.58
2018-08-14T10:20:41.480Z,1007.59
2018-08-14T10:21:41.497Z,1007.59
2018-08-14T10:22:41.518Z,1007.54
2018-08-14T10:23:41.559Z,1007.58
2018-08-14T10:24:41.578Z,1007.57
2018-08-14T10:25:41.613Z,1007.60
2018-08-14T10:26:41.663Z,1007.63
2018-08-14T10:27:41.665Z,1007.62
2018-08-14T10:28:41.717Z,1007.61
2018-08-14T10:29:41.730Z,1007.60
2018-08-14T10:30:41.772Z,1007.62
2018-08-14T10:31:41.784Z,1007.83
2018-08-14T10:32:41.824Z,1007.68
2018-08-14T10:33:41.844Z,1007.72
2018-08-14T10:34:41.871Z,1007.60
2018-08-14T10:35:41.902Z,1007.61
2018-08-14T10:36:41.946Z,1007.59
2018-08-14T10:37:41.959Z,1007.57
2018-08-14T10:38:42.005Z,1007.58
2018-08-14T10:39:42.087Z,1007.53
2018-08-14T10:40:42.049Z,1007.65
2018-08-14T10:41:42.078Z,1007.59
2018-08-14T10:42:42.109Z,1007.57
2018-08-14T10:43:42.145Z,1007.56
2018-08-14T10:44:42.170Z,1007.59
2018-08-14T10:45:42.196Z,1007.57
2018-08-14T10:46:42.229Z,1007.61
2018-08-14T10:47:42.259Z,1007.64
2018-08-14T10:48:42.288Z,1007.63
2018-08-14T10:49:42.350Z,1007.63
2018-08-14T10:50:42.354Z,1007.61
2018-08-14T10:51:42.382Z,1007.62
2018-08-14T10:52:42.408Z,1007.61
2018-08-14T10:53:42.434Z,1007.65
2018-08-14T10:54:42.468Z,1007.63
2018-08-14T10:55:42.508Z,1007.62
2018-08-14T10:56:42.528Z,1007.65
2018-08-14T10:57:42.557Z,1007.66
2018-08-14T10:58:42.820Z,1007.56
2018-08-14T10:59:42.615Z,1007.57
2018-08-14T11:00:42.669Z,1007.57
2018-08-14T11:01:42.677Z,1007.60
2018-08-14T11:02:42.706Z,1007.64
2018-08-14T11:03:42.739Z,1007.59
2018-08-14T11:04:42.788Z,1007.62
2018-08-14T11:05:42.795Z,1007.64
2018-08-14T11:06:42.822Z,1007.61
2018-08-14T11:07:42.851Z,1007.57
2018-08-14T11:08:42.892Z,1007.60
2018-08-14T11:09:42.915Z,1007.60
2018-08-14T11:10:42.957Z,1007.63
2018-08-14T11:11:42.982Z,1007.63
2018-08-14T11:12:43.008Z,1007.63
2018-08-14T11:13:43.037Z,1007.60
2018-08-14T11:14:43.062Z,1007.61
2018-08-14T11:15:43.092Z,1007.56
2018-08-14T11:16:43.121Z,1007.65
2018-08-14T11:17:43.153Z,1007.63
2018-08-14T11:18:43.185Z,1007.76
2018-08-14T11:19:43.213Z,1007.71
2018-08-14T11:20:43.244Z,1007.73
2018-08-14T11:21:43.267Z,1007.74
2018-08-14T11:22:43.299Z,1007.73
2018-08-14T11:23:43.329Z,1007.67
2018-08-14T11:24:43.418Z,1007.67
2018-08-14T11:25:43.397Z,1007.68
2018-08-14T11:26:43.423Z,1007.64
2018-08-14T11:27:43.451Z,1007.74
2018-08-14T11:28:43.483Z,1007.69
2018-08-14T11:29:43.515Z,1007.79
2018-08-14T11:30:43.540Z,1007.76
2018-08-14T11:31:43.574Z,1007.67
2018-08-14T11:32:43.600Z,1007.72
2018-08-14T11:33:43.627Z,1007.70
2018-08-14T11:34:43.658Z,1007.72
2018-08-14T11:35:43.693Z,1007.70
2018-08-14T11:36:43.718Z,1007.76
2018-08-14T11:37:43.753Z,1007.74
2018-08-14T11:38:43.783Z,1007.76
2018-08-14T11:39:43.826Z,1007.72
2018-08-14T11:40:43.840Z,1007.75
2018-08-14T11:41:43.868Z,1007.71
2018-08-14T11:42:43.899Z,1007.79
2018-08-14T11:43:43.932Z,1007.76
2018-08-14T11:44:43.964Z,1007.78
2018-08-14T11:45:43.993Z,1007.75
2018-08-14T11:46:44.030Z,1007.75
2018-08-14T11:47:44.057Z,1007.73
2018-08-14T11:48:44.082Z,1007.75
2018-08-14T11:49:44.114Z,1007.75
2018-08-14T11:50:44.174Z,1007.75
2018-08-14T11:51:44.175Z,1007.73
2018-08-14T11:52:44.205Z,1007.78
2018-08-14T11:53:44.239Z,1007.78
2018-08-14T11:54:44.263Z,1007.74
2018-08-14T11:55:44.292Z,1007.72
2018-08-14T11:56:44.321Z,1007.76
2018-08-14T11:57:44.352Z,1007.79
2018-08-14T11:58:44.391Z,1007.82
2018-08-14T11:59:44.408Z,1007.77
2018-08-14T12:00:44.488Z,1007.75
2018-08-14T12:01:44.467Z,1007.79
2018-08-14T12:02:44.502Z,1007.83
2018-08-14T12:03:44.528Z,1007.80
2018-08-14T12:04:44.559Z,1007.79
2018-08-14T12:05:44.591Z,1007.78